Richmond's Hourly Summary for Sunday, April 16, 2017
Hour Temp
(f)
RH
(%)
Solar Rad.
(MJ/m2)
Rainfall
(in)
Wind
(mph)
4/16/2017 12:00 AM 70 93 0 0 5.87
4/16/2017 1:00 AM 69 94 0 0 4.07
4/16/2017 2:00 AM 69 96 0 0 3.8
4/16/2017 3:00 AM 69 97 0 0 2.34
4/16/2017 4:00 AM 68 98 0 0 1.82
4/16/2017 5:00 AM 69 98 0 0 3.06
4/16/2017 6:00 AM 69 99 0 0 2.48
4/16/2017 7:00 AM 69 99 0 0 3.75
4/16/2017 8:00 AM 70 99 0.18 0 3.41
4/16/2017 9:00 AM 71 96 0.61 0 4.65
4/16/2017 10:00 AM 74 85 1.3 0 6.01
4/16/2017 11:00 AM 78 70 1.93 0 6.77
4/16/2017 12:00 PM 80 64 2.36 0 6.73
4/16/2017 1:00 PM 82 59 2.49 0 7.48
4/16/2017 2:00 PM 82 54 2.67 0 9.33
4/16/2017 3:00 PM 83 53 2.63 0 9.36
4/16/2017 4:00 PM 83 53 2.42 0 9.74
4/16/2017 5:00 PM 81 55 1.72 0 9.93
4/16/2017 6:00 PM 80 55 0.93 0 8.78
4/16/2017 7:00 PM 77 59 0.39 0 7.05
4/16/2017 8:00 PM 76 66 0.24 0 5.06
4/16/2017 9:00 PM 73 77 0 0 5.59
4/16/2017 10:00 PM 71 85 0 0 2.75
4/16/2017 11:00 PM 69 92 0 0 0.84
Data Summary 74 79 19.87 0.00 5.44